createdAt,value
2022-10-29T00:05:58.893Z,16.90
2022-10-29T00:12:00.742Z,16.80
2022-10-29T00:18:02.369Z,16.80
2022-10-29T00:24:04.139Z,16.80
2022-10-29T00:30:05.969Z,16.70
2022-10-29T00:36:10.027Z,16.70
2022-10-29T00:42:16.140Z,16.70
2022-10-29T00:48:17.828Z,16.80
2022-10-29T00:54:19.703Z,16.70
2022-10-29T01:00:21.971Z,16.60
2022-10-29T01:06:24.647Z,16.50
2022-10-29T01:12:41.736Z,16.40
2022-10-29T01:18:59.533Z,16.40
2022-10-29T01:25:30.870Z,16.40
2022-10-29T01:31:47.572Z,16.30
2022-10-29T01:37:49.233Z,16.30
2022-10-29T01:44:06.000Z,16.30
2022-10-29T01:50:09.175Z,16.30
2022-10-29T01:56:10.824Z,16.20
2022-10-29T02:02:12.530Z,16.20
2022-10-29T02:08:32.617Z,16.10
2022-10-29T02:14:46.196Z,16.00
2022-10-29T02:20:47.848Z,15.90
2022-10-29T02:26:49.498Z,15.90
2022-10-29T02:32:51.185Z,15.70
2022-10-29T02:38:52.863Z,15.70
2022-10-29T02:44:54.467Z,15.70
2022-10-29T02:50:56.230Z,15.70
2022-10-29T02:56:57.921Z,15.80
2022-10-29T03:03:00.128Z,15.80
2022-10-29T03:09:02.278Z,15.80
2022-10-29T03:15:04.190Z,15.90
2022-10-29T03:21:05.894Z,15.90
2022-10-29T03:27:07.580Z,15.70
2022-10-29T03:33:09.197Z,15.70
2022-10-29T03:39:10.849Z,15.70
2022-10-29T03:45:12.605Z,15.70
2022-10-29T03:51:14.231Z,15.60
2022-10-29T03:57:15.875Z,15.50
2022-10-29T04:03:17.666Z,15.50
2022-10-29T04:09:19.322Z,15.40
2022-10-29T04:15:21.039Z,15.50
2022-10-29T04:28:40.878Z,15.50
2022-10-29T04:34:06.373Z,15.50
2022-10-29T04:40:08.378Z,15.50
2022-10-29T04:46:10.390Z,15.50
2022-10-29T04:52:12.064Z,15.50
2022-10-29T04:58:14.984Z,15.50
2022-10-29T05:04:16.677Z,15.40
2022-10-29T05:10:18.369Z,15.40
2022-10-29T05:16:20.041Z,15.40
2022-10-29T05:22:21.821Z,15.40
2022-10-29T05:28:24.171Z,15.50
2022-10-29T05:34:25.923Z,15.40
2022-10-29T05:40:27.839Z,15.40
2022-10-29T05:46:29.482Z,15.40
2022-10-29T05:52:31.150Z,15.50
2022-10-29T05:58:32.833Z,15.70
2022-10-29T06:04:34.558Z,15.60
2022-10-29T06:10:36.724Z,15.40
2022-10-29T06:16:38.476Z,15.30
2022-10-29T06:22:40.226Z,15.40
2022-10-29T06:28:41.808Z,15.30
2022-10-29T06:34:43.535Z,15.20
2022-10-29T06:40:51.708Z,15.30
2022-10-29T06:46:53.457Z,15.30
2022-10-29T06:52:59.479Z,15.30
2022-10-29T06:59:01.462Z,15.10
2022-10-29T07:05:03.414Z,15.10
2022-10-29T07:11:05.472Z,15.20
2022-10-29T07:17:07.224Z,15.00
2022-10-29T07:23:09.413Z,15.30
2022-10-29T07:29:11.418Z,15.30
2022-10-29T07:35:13.028Z,15.30
2022-10-29T07:41:14.829Z,15.40
2022-10-29T07:47:16.460Z,15.20
2022-10-29T07:53:18.187Z,15.30
2022-10-29T07:59:19.910Z,15.40
2022-10-29T08:05:21.998Z,15.60
2022-10-29T08:11:23.756Z,15.80
2022-10-29T08:17:25.506Z,15.90
2022-10-29T08:23:27.311Z,16.00
2022-10-29T08:29:29.104Z,16.10
2022-10-29T08:35:31.293Z,16.00
2022-10-29T08:41:51.650Z,15.90
2022-10-29T08:47:53.587Z,16.10
2022-10-29T08:54:25.465Z,16.10
2022-10-29T09:00:32.082Z,16.10
2022-10-29T09:06:52.345Z,16.20
2022-10-29T09:13:12.719Z,16.20
2022-10-29T09:19:17.526Z,16.20
2022-10-29T09:25:30.698Z,16.10
2022-10-29T09:31:42.734Z,16.20
2022-10-29T09:37:56.311Z,16.40
2022-10-29T09:44:11.139Z,16.70
2022-10-29T09:50:21.952Z,17.10
2022-10-29T09:56:23.733Z,17.20
2022-10-29T10:02:38.810Z,17.30
2022-10-29T10:08:58.420Z,17.40
2022-10-29T10:15:15.397Z,17.50
2022-10-29T10:21:30.658Z,17.90
2022-10-29T10:27:32.610Z,18.30
2022-10-29T10:33:35.993Z,18.60
2022-10-29T10:39:44.976Z,19.00
2022-10-29T10:45:52.322Z,19.00
2022-10-29T10:51:55.098Z,19.50
2022-10-29T10:58:05.639Z,19.50
2022-10-29T11:04:18.692Z,19.40
2022-10-29T11:10:22.979Z,19.70
2022-10-29T11:16:42.709Z,19.80
2022-10-29T11:22:49.390Z,20.00
2022-10-29T11:28:56.911Z,20.30
2022-10-29T11:35:09.037Z,20.50
2022-10-29T11:41:10.682Z,20.60
2022-10-29T11:47:18.851Z,21.00
2022-10-29T11:53:39.007Z,21.20
2022-10-29T11:59:40.666Z,20.90
2022-10-29T12:05:54.343Z,21.10
2022-10-29T12:12:00.357Z,21.30
2022-10-29T12:18:20.706Z,21.30
2022-10-29T12:24:45.344Z,21.50
2022-10-29T12:31:07.331Z,21.50
2022-10-29T12:37:15.697Z,21.60
2022-10-29T12:43:27.509Z,21.20
2022-10-29T12:49:31.867Z,20.80
2022-10-29T12:55:34.706Z,20.50
2022-10-29T13:02:05.341Z,20.30
2022-10-29T13:08:02.653Z,20.30
2022-10-29T13:14:04.397Z,20.20
2022-10-29T13:20:25.328Z,20.30
2022-10-29T13:26:56.430Z,20.90
2022-10-29T13:32:58.529Z,20.80
2022-10-29T13:39:07.354Z,20.90
2022-10-29T13:45:13.817Z,20.70
2022-10-29T13:51:19.108Z,20.50
2022-10-29T13:57:20.906Z,20.20
2022-10-29T14:03:29.567Z,20.10
2022-10-29T14:09:31.235Z,20.00
2022-10-29T14:15:34.643Z,20.10
2022-10-29T14:21:39.745Z,20.10
2022-10-29T14:27:41.457Z,20.00
2022-10-29T14:33:43.725Z,20.10
2022-10-29T14:39:58.509Z,20.00
2022-10-29T14:46:11.478Z,19.90
2022-10-29T14:52:23.404Z,19.90
2022-10-29T14:58:33.128Z,20.00
2022-10-29T15:04:34.879Z,19.90
2022-10-29T15:10:46.006Z,19.80
2022-10-29T15:16:47.712Z,19.70
2022-10-29T15:22:52.809Z,19.60
2022-10-29T15:28:55.896Z,19.50
2022-10-29T15:34:59.164Z,19.40
2022-10-29T15:41:19.662Z,19.30
2022-10-29T15:47:26.269Z,19.20
2022-10-29T15:53:27.920Z,19.00
2022-10-29T15:59:29.723Z,18.90
2022-10-29T16:05:31.539Z,18.70
2022-10-29T16:11:34.392Z,18.50
2022-10-29T16:17:36.187Z,18.40
2022-10-29T16:23:38.587Z,18.40
2022-10-29T16:29:40.568Z,18.50
2022-10-29T16:35:42.268Z,18.50
2022-10-29T16:41:44.147Z,18.50
2022-10-29T16:47:46.115Z,18.50
2022-10-29T16:53:47.872Z,18.60
2022-10-29T16:59:49.706Z,18.60
2022-10-29T17:05:51.382Z,18.70
2022-10-29T17:11:53.048Z,18.60
2022-10-29T17:17:54.705Z,18.70
2022-10-29T17:23:56.500Z,18.80
2022-10-29T17:29:58.185Z,18.80
2022-10-29T17:36:03.977Z,18.70
2022-10-29T17:42:05.669Z,18.60
2022-10-29T17:48:07.555Z,18.50
2022-10-29T17:54:09.478Z,18.40
2022-10-29T18:00:11.418Z,18.10
2022-10-29T18:06:13.546Z,17.80
2022-10-29T18:12:15.290Z,17.90
2022-10-29T18:18:16.895Z,18.00
2022-10-29T18:24:19.443Z,18.10
2022-10-29T18:30:22.834Z,18.00
2022-10-29T18:36:24.616Z,17.80
2022-10-29T18:42:26.430Z,17.70
2022-10-29T18:54:35.376Z,17.30
2022-10-29T19:00:37.170Z,17.20
2022-10-29T19:06:39.001Z,17.00
2022-10-29T19:12:40.668Z,16.90
2022-10-29T19:18:42.489Z,16.70
2022-10-29T19:24:44.184Z,16.80
2022-10-29T19:30:45.856Z,16.70
2022-10-29T19:36:47.619Z,16.60
2022-10-29T19:42:49.260Z,16.40
2022-10-29T19:48:52.085Z,16.40
2022-10-29T19:54:53.797Z,16.30
2022-10-29T20:01:02.816Z,16.50
2022-10-29T20:07:04.652Z,16.60
2022-10-29T20:13:06.400Z,16.30
2022-10-29T20:19:08.863Z,16.10
2022-10-29T20:25:10.608Z,15.90
2022-10-29T20:31:13.876Z,16.00
2022-10-29T20:37:15.629Z,16.10
2022-10-29T20:43:17.530Z,16.40
2022-10-29T20:49:19.262Z,16.50
2022-10-29T20:55:20.997Z,16.50
2022-10-29T21:01:24.208Z,16.50
2022-10-29T21:07:26.094Z,16.50
2022-10-29T21:13:28.260Z,16.50
2022-10-29T21:19:29.944Z,16.30
2022-10-29T21:25:31.597Z,16.30
2022-10-29T21:31:33.272Z,16.20
2022-10-29T21:37:34.906Z,16.10
2022-10-29T21:43:37.475Z,16.20
2022-10-29T21:49:39.215Z,16.10
2022-10-29T21:55:40.943Z,15.90
2022-10-29T22:01:42.691Z,15.90
2022-10-29T22:07:44.606Z,15.80
2022-10-29T22:13:46.274Z,15.60
2022-10-29T22:19:47.904Z,15.70
2022-10-29T22:25:51.053Z,15.70
2022-10-29T22:31:52.698Z,15.90
2022-10-29T22:37:54.495Z,15.60
2022-10-29T22:43:58.903Z,15.60
2022-10-29T22:50:01.061Z,15.50
2022-10-29T22:56:02.876Z,15.50
2022-10-29T23:02:04.653Z,15.60
2022-10-29T23:08:06.759Z,15.50
2022-10-29T23:14:08.444Z,15.60
2022-10-29T23:20:10.246Z,15.50
2022-10-29T23:26:12.408Z,15.50
2022-10-29T23:32:14.073Z,15.50
2022-10-29T23:38:16.328Z,15.50
2022-10-29T23:44:17.939Z,15.50
2022-10-29T23:50:19.653Z,15.50
2022-10-29T23:56:21.374Z,15.40
